Castle Rock, CO (80109)

9:13 AM MST on March 06, 2015 (GMT -0700)
The Meadows - Morningview Southeast | Change Station
CLOSE
Current Station
Personal Weather Station
Location: Castle Rock, CO
Elevation: 6417 ft
Nearby Weather Stations

Elev 6417 ft 39.38 °N, 104.90 °W | Updated 1 minute ago

Clear
Clear
39.0 °F
Feels Like 39 °F
N
0.0
Wind Variable Wind from NE

Today
High -- | Low -- °F
--% Chance of Precip.
Yesterday
High -- | Low -- °F
Precip. -- in
6:25 AM 5:56 PM
Full, 99% visible
Pressure 30.39 in
Visibility 10.0 miles
Clouds Few 14000 ft
Few 20000 ft
Windchill 39 °F
Dew Point 7 °F
Humidity 26%
Rainfall in
Snow Depth Not available.
UV 2 out of 12
Pollen 6.30 out of 12
Air Quality Not available.
Flu Activity Not available.
METAR KAPA 061553Z 12006KT 10SM FEW140 FEW200 01/M10 A3029 RMK AO2 SLP291 ACSL DSNT SW-NW T00111100

More Conditions Fewer Conditions

Pressure 30.39 in
Visibility 10.0 miles
Clouds Few 14000 ft
Few 20000 ft
Windchill 39 °F
Dew Point 7 °F
Humidity 26%
Rainfall in
Snow Depth Not available.
UV 2 out of 12
Pollen 6.30 out of 12
Air Quality Not available.
Flu Activity Not available.
METAR KAPA 061553Z 12006KT 10SM FEW140 FEW200 01/M10 A3029 RMK AO2 SLP291 ACSL DSNT SW-NW T00111100

More Conditions Fewer Conditions

10-Day Weather Forecast

Almanac

Astronomy

Mar. 06, 2015 Rise Set
Actual Time
Civil Twilight
Nautical Twilight
Astronomical Twilight
Moon
Length of Visible Light
Length of Day
Tomorrow will be .
, % of the Moon is Illuminated

Today's Extremes

State Highs State Lows

Community

WunderPhotos

Upload Photos

1,803,327 photos uploaded!

WunderBlogs® & News

Nearby

Air Quality

  Air Quality AQ Index Pollutant
Not available.

Snow Depth

Station Depth Elevation

Earthquake Activity

City Distance Mag. Time & Date
Minimum magnitude displayed is 2.5.

Coastal Water Temperatures

Place Temperature

Nearby Weather Stations